createdAt,value
2019-03-26T00:01:07.577Z,78.63
2019-03-26T00:03:36.106Z,79.17
2019-03-26T00:06:04.533Z,78.80
2019-03-26T00:08:32.916Z,78.80
2019-03-26T00:11:01.301Z,78.76
2019-03-26T00:13:32.559Z,79.19
2019-03-26T00:16:00.904Z,79.26
2019-03-26T00:18:29.294Z,79.09
2019-03-26T00:20:57.632Z,79.95
2019-03-26T00:23:25.972Z,80.39
2019-03-26T00:25:54.346Z,80.76
2019-03-26T00:28:22.707Z,81.00
2019-03-26T00:30:51.092Z,81.79
2019-03-26T00:33:19.471Z,81.90
2019-03-26T00:35:47.825Z,81.87
2019-03-26T00:38:16.178Z,81.98
2019-03-26T00:40:44.577Z,81.89
2019-03-26T00:43:12.931Z,81.51
2019-03-26T00:45:41.303Z,81.29
2019-03-26T00:48:09.680Z,81.40
2019-03-26T00:50:38.027Z,81.67
2019-03-26T00:53:06.364Z,81.84
2019-03-26T00:55:34.864Z,81.60
2019-03-26T00:58:08.213Z,81.55
2019-03-26T01:00:38.576Z,81.74
2019-03-26T01:03:06.944Z,81.92
2019-03-26T01:05:35.305Z,82.13
2019-03-26T01:08:03.678Z,81.78
2019-03-26T01:10:32.049Z,81.16
2019-03-26T01:13:00.500Z,80.87
2019-03-26T01:15:28.855Z,80.98
2019-03-26T01:17:57.313Z,81.13
2019-03-26T01:20:25.670Z,81.30
2019-03-26T01:22:54.041Z,81.54
2019-03-26T01:25:22.400Z,79.48
2019-03-26T01:27:50.775Z,78.30
2019-03-26T01:30:19.447Z,77.60
2019-03-26T01:32:47.866Z,76.25
2019-03-26T01:35:16.218Z,76.94
2019-03-26T01:37:59.492Z,77.28
2019-03-26T01:40:27.875Z,77.29
2019-03-26T01:42:56.312Z,77.71
2019-03-26T01:45:24.667Z,77.77
2019-03-26T01:47:53.034Z,78.40
2019-03-26T01:50:21.387Z,77.89
2019-03-26T01:52:49.774Z,77.93
2019-03-26T01:55:18.156Z,78.36
2019-03-26T01:57:46.525Z,78.69
2019-03-26T02:00:15.126Z,78.77
2019-03-26T02:02:43.477Z,79.23
2019-03-26T02:05:11.909Z,79.42
2019-03-26T02:07:40.264Z,79.51
2019-03-26T02:10:08.700Z,79.95
2019-03-26T02:12:37.098Z,80.47
2019-03-26T02:15:07.807Z,80.41
2019-03-26T02:17:36.186Z,80.54
2019-03-26T02:20:06.399Z,80.47
2019-03-26T02:22:34.754Z,80.28
2019-03-26T02:25:03.199Z,80.53
2019-03-26T02:27:31.541Z,80.44
2019-03-26T02:29:59.904Z,80.25
2019-03-26T02:32:28.249Z,80.31
2019-03-26T02:34:56.773Z,80.55
2019-03-26T02:37:25.110Z,80.14
2019-03-26T02:39:53.478Z,80.87
2019-03-26T02:42:22.122Z,81.30
2019-03-26T02:44:50.457Z,81.45
2019-03-26T02:47:18.769Z,81.67
2019-03-26T02:49:47.127Z,81.87
2019-03-26T02:52:15.547Z,82.02
2019-03-26T02:54:43.848Z,82.12
2019-03-26T02:57:12.200Z,82.30
2019-03-26T02:59:40.591Z,81.87
2019-03-26T03:02:08.957Z,81.70
2019-03-26T03:04:37.353Z,81.82
2019-03-26T03:07:05.817Z,82.01
2019-03-26T03:09:34.149Z,82.20
2019-03-26T03:12:02.595Z,82.18
2019-03-26T03:14:31.608Z,81.74
2019-03-26T03:17:00.025Z,80.94
2019-03-26T03:19:28.324Z,81.15
2019-03-26T03:21:56.677Z,81.37
2019-03-26T03:24:25.035Z,80.70
2019-03-26T03:26:53.392Z,80.87
2019-03-26T03:29:21.761Z,80.78
2019-03-26T03:31:50.195Z,79.85
2019-03-26T03:34:18.562Z,79.31
2019-03-26T03:36:46.913Z,78.24
2019-03-26T03:39:15.301Z,76.69
2019-03-26T03:41:43.651Z,76.82
2019-03-26T03:44:12.007Z,76.47
2019-03-26T03:46:41.358Z,76.20
2019-03-26T03:49:09.707Z,76.00
2019-03-26T03:51:39.739Z,75.90
2019-03-26T03:54:08.277Z,75.30
2019-03-26T03:56:38.305Z,75.52
2019-03-26T03:59:27.701Z,75.55
2019-03-26T04:01:56.110Z,76.29
2019-03-26T04:04:24.537Z,76.31
2019-03-26T04:06:52.933Z,76.27
2019-03-26T04:09:21.303Z,76.22
2019-03-26T04:11:49.677Z,76.40
2019-03-26T04:14:18.081Z,75.47
2019-03-26T04:16:46.425Z,74.91
2019-03-26T04:19:14.940Z,74.03
2019-03-26T04:21:43.303Z,73.97
2019-03-26T04:24:11.643Z,73.38
2019-03-26T04:26:39.992Z,72.43
2019-03-26T04:29:08.379Z,71.82
2019-03-26T04:31:36.768Z,71.05
2019-03-26T04:34:05.138Z,71.27
2019-03-26T04:36:33.512Z,71.26
2019-03-26T04:39:01.886Z,69.73
2019-03-26T04:41:30.250Z,70.45
2019-03-26T04:43:58.606Z,69.03
2019-03-26T04:46:26.974Z,69.83
2019-03-26T04:48:55.317Z,68.99
2019-03-26T04:51:23.672Z,69.55
2019-03-26T04:53:52.325Z,69.36
2019-03-26T04:56:20.656Z,68.69
2019-03-26T04:58:49.011Z,69.12
2019-03-26T05:01:17.636Z,68.07
2019-03-26T05:03:45.990Z,68.44
2019-03-26T05:06:14.350Z,67.74
2019-03-26T05:08:42.719Z,68.49
2019-03-26T05:11:11.118Z,67.88
2019-03-26T05:13:39.487Z,68.86
2019-03-26T05:16:08.193Z,68.23
2019-03-26T05:18:36.561Z,69.42
2019-03-26T05:21:04.919Z,68.82
2019-03-26T05:23:33.275Z,67.32
2019-03-26T05:26:01.641Z,67.31
2019-03-26T05:28:29.996Z,67.83
2019-03-26T05:30:58.375Z,67.88
2019-03-26T05:33:26.750Z,67.12
2019-03-26T05:35:55.092Z,65.74
2019-03-26T05:38:23.438Z,64.96
2019-03-26T05:40:51.804Z,65.80
2019-03-26T05:43:20.186Z,66.03
2019-03-26T05:45:48.560Z,65.87
2019-03-26T05:48:17.171Z,66.51
2019-03-26T05:50:45.534Z,66.55
2019-03-26T05:53:13.908Z,66.83
2019-03-26T05:55:42.271Z,66.99
2019-03-26T05:58:10.671Z,66.49
2019-03-26T06:00:39.033Z,66.91
2019-03-26T06:03:07.403Z,66.87
2019-03-26T06:05:35.792Z,67.49
2019-03-26T06:08:04.172Z,66.52
2019-03-26T06:10:32.541Z,67.43
2019-03-26T06:13:01.217Z,68.65
2019-03-26T06:15:29.573Z,68.49
2019-03-26T06:17:57.908Z,67.76
2019-03-26T06:20:26.290Z,67.46
2019-03-26T06:22:54.659Z,67.71
2019-03-26T06:25:23.027Z,68.51
2019-03-26T06:27:51.395Z,69.34
2019-03-26T06:30:19.776Z,70.33
2019-03-26T06:32:48.158Z,71.10
2019-03-26T06:35:16.516Z,71.50
2019-03-26T06:37:44.890Z,72.42
2019-03-26T06:40:13.890Z,73.08
2019-03-26T06:42:42.280Z,72.62
2019-03-26T06:45:11.494Z,73.02
2019-03-26T06:47:39.864Z,72.03
2019-03-26T06:50:09.580Z,73.55
2019-03-26T06:52:38.034Z,74.93
2019-03-26T06:55:09.383Z,75.30
2019-03-26T06:57:38.085Z,75.97
2019-03-26T07:00:13.366Z,75.72
2019-03-26T07:02:41.878Z,75.82
2019-03-26T07:05:10.616Z,75.46
2019-03-26T07:07:38.975Z,76.25
2019-03-26T07:10:08.688Z,76.39
2019-03-26T07:12:37.137Z,76.52
2019-03-26T07:15:09.356Z,76.34
2019-03-26T07:17:37.764Z,76.22
2019-03-26T07:20:08.373Z,75.32
2019-03-26T07:22:36.718Z,74.37
2019-03-26T07:25:08.496Z,75.15
2019-03-26T07:27:37.107Z,75.48
2019-03-26T07:30:07.307Z,75.90
2019-03-26T07:32:36.019Z,76.63
2019-03-26T07:35:06.517Z,76.35
2019-03-26T07:37:44.994Z,76.15
2019-03-26T07:40:06.236Z,75.16
2019-03-26T07:42:34.985Z,74.96
2019-03-26T07:45:04.490Z,74.94
2019-03-26T07:47:32.883Z,75.04
2019-03-26T07:50:01.254Z,74.94
2019-03-26T07:52:29.612Z,74.46
2019-03-26T07:54:57.991Z,74.39
2019-03-26T07:57:26.368Z,72.32
2019-03-26T07:59:54.730Z,71.57
2019-03-26T08:02:23.108Z,72.75
2019-03-26T08:04:51.510Z,71.86
2019-03-26T08:07:19.897Z,69.65
2019-03-26T08:09:48.279Z,69.40
2019-03-26T08:12:16.649Z,69.30
2019-03-26T08:14:45.075Z,69.41
2019-03-26T08:17:13.420Z,67.66
2019-03-26T08:19:42.113Z,66.96
2019-03-26T08:22:10.458Z,67.64
2019-03-26T08:24:38.794Z,67.38
2019-03-26T08:27:07.211Z,66.74
2019-03-26T08:29:35.551Z,65.34
2019-03-26T08:32:03.995Z,65.84
2019-03-26T08:34:32.379Z,64.91
2019-03-26T08:37:00.736Z,64.41
2019-03-26T08:39:29.107Z,63.88
2019-03-26T08:41:57.494Z,63.66
2019-03-26T08:44:26.233Z,62.81
2019-03-26T08:46:54.628Z,61.52
2019-03-26T08:49:23.002Z,61.02
2019-03-26T08:51:51.368Z,60.88
2019-03-26T08:54:19.723Z,59.73
2019-03-26T08:56:48.101Z,59.96
2019-03-26T08:59:16.470Z,60.14
2019-03-26T09:01:44.832Z,59.47
2019-03-26T09:04:13.203Z,59.20
2019-03-26T09:06:41.578Z,59.60
2019-03-26T09:09:10.068Z,59.26
2019-03-26T09:11:38.444Z,60.15
2019-03-26T09:14:06.894Z,59.79
2019-03-26T09:16:35.257Z,58.77
2019-03-26T09:19:03.768Z,58.76
2019-03-26T09:21:32.751Z,57.66
2019-03-26T09:24:01.156Z,56.12
2019-03-26T09:26:29.533Z,56.73
2019-03-26T09:28:57.908Z,57.03
2019-03-26T09:31:26.267Z,56.52
2019-03-26T09:33:54.624Z,56.40
2019-03-26T09:36:23.000Z,54.40
2019-03-26T09:38:56.553Z,54.49
2019-03-26T09:41:25.149Z,53.86
2019-03-26T09:43:53.552Z,53.84
2019-03-26T09:46:21.977Z,53.60
2019-03-26T09:48:50.357Z,53.02
2019-03-26T09:51:18.731Z,52.39
2019-03-26T09:53:47.111Z,52.41
2019-03-26T09:56:27.754Z,52.19
2019-03-26T09:58:45.556Z,51.28
2019-03-26T10:01:14.611Z,50.80
2019-03-26T10:03:42.970Z,49.87
2019-03-26T10:06:22.783Z,50.14
2019-03-26T10:08:51.749Z,49.25
2019-03-26T10:11:11.572Z,49.45
2019-03-26T10:13:39.949Z,47.13
2019-03-26T10:16:08.326Z,46.88
2019-03-26T10:18:36.695Z,46.02
2019-03-26T10:21:05.072Z,45.34
2019-03-26T10:23:33.439Z,45.93
2019-03-26T10:26:01.830Z,45.72
2019-03-26T10:28:30.181Z,44.08
2019-03-26T10:30:58.528Z,43.71
2019-03-26T10:33:26.907Z,44.35
2019-03-26T10:35:55.282Z,43.35
2019-03-26T10:38:23.658Z,42.90
2019-03-26T10:40:52.035Z,41.90
2019-03-26T10:43:20.493Z,41.97
2019-03-26T10:45:48.849Z,41.93
2019-03-26T10:48:17.220Z,41.10
2019-03-26T10:50:45.587Z,40.13
2019-03-26T10:53:13.964Z,38.94
2019-03-26T10:55:42.323Z,40.10
2019-03-26T10:58:10.689Z,39.41
2019-03-26T11:00:39.651Z,39.37
2019-03-26T11:03:08.031Z,38.68
2019-03-26T11:05:36.450Z,39.27
2019-03-26T11:08:09.719Z,39.29
2019-03-26T11:10:38.117Z,38.77
2019-03-26T11:13:06.575Z,38.50
2019-03-26T11:15:35.280Z,38.06
2019-03-26T11:18:03.685Z,38.22
2019-03-26T11:20:32.059Z,37.18
2019-03-26T11:23:00.502Z,37.81
2019-03-26T11:25:28.889Z,35.66
2019-03-26T11:27:57.265Z,36.50
2019-03-26T11:30:25.661Z,35.51
2019-03-26T11:32:53.999Z,35.38
2019-03-26T11:35:22.342Z,33.31
2019-03-26T11:37:50.712Z,33.16
2019-03-26T11:40:19.089Z,32.32
2019-03-26T11:42:47.453Z,32.08
2019-03-26T11:45:15.884Z,33.96
2019-03-26T11:47:44.322Z,32.42
2019-03-26T11:50:13.229Z,35.07
2019-03-26T11:52:41.660Z,34.05
2019-03-26T11:55:10.710Z,34.48
2019-03-26T11:57:39.153Z,32.94
2019-03-26T12:00:13.846Z,32.89
2019-03-26T12:02:42.218Z,32.76
2019-03-26T12:05:10.724Z,33.67
2019-03-26T12:07:39.121Z,35.37
2019-03-26T12:10:08.216Z,34.42
2019-03-26T12:12:36.582Z,34.02
2019-03-26T12:15:07.172Z,32.75
2019-03-26T12:17:35.551Z,31.94
2019-03-26T12:20:08.648Z,34.69
2019-03-26T12:22:37.034Z,33.88
2019-03-26T12:25:07.337Z,34.36
2019-03-26T12:27:36.629Z,34.22
2019-03-26T12:30:09.398Z,34.48
2019-03-26T12:32:40.679Z,33.52
2019-03-26T12:35:09.758Z,33.14
2019-03-26T12:37:38.142Z,33.77
2019-03-26T12:40:09.731Z,33.23
2019-03-26T12:42:38.106Z,33.28
2019-03-26T12:45:07.489Z,35.22
2019-03-26T12:47:36.245Z,33.89
2019-03-26T12:50:07.210Z,34.70
2019-03-26T12:52:35.599Z,34.94
2019-03-26T12:55:05.215Z,34.79
2019-03-26T12:57:33.574Z,32.65
2019-03-26T13:00:02.086Z,35.05
2019-03-26T13:02:30.562Z,34.89
2019-03-26T13:04:59.064Z,33.93
2019-03-26T13:07:27.558Z,33.98
2019-03-26T13:09:56.161Z,35.38
2019-03-26T13:12:24.664Z,35.25
2019-03-26T13:14:53.159Z,35.05
2019-03-26T13:17:22.332Z,34.22
2019-03-26T13:19:50.829Z,35.11
2019-03-26T13:22:19.345Z,34.65
2019-03-26T13:24:47.838Z,33.89
2019-03-26T13:27:16.315Z,34.54
2019-03-26T13:29:44.834Z,35.44
2019-03-26T13:32:13.374Z,34.42
2019-03-26T13:34:41.803Z,33.85
2019-03-26T13:37:10.486Z,34.38
2019-03-26T13:39:38.972Z,35.81
2019-03-26T13:42:07.696Z,34.10
2019-03-26T13:44:36.200Z,35.90
2019-03-26T13:47:04.751Z,34.56
2019-03-26T13:49:33.330Z,35.28
2019-03-26T13:52:01.853Z,36.10
2019-03-26T13:54:30.327Z,36.06
2019-03-26T13:56:58.828Z,35.90
2019-03-26T13:59:27.332Z,34.92
2019-03-26T14:01:55.843Z,35.53
2019-03-26T14:04:24.404Z,36.18
2019-03-26T14:06:52.876Z,35.32
2019-03-26T14:09:21.431Z,34.85
2019-03-26T14:11:49.924Z,34.75
2019-03-26T14:14:18.422Z,34.35
2019-03-26T14:16:46.939Z,34.35
2019-03-26T14:19:15.852Z,34.54
2019-03-26T14:21:44.385Z,35.34
2019-03-26T14:24:13.521Z,34.81
2019-03-26T14:26:42.296Z,34.24
2019-03-26T14:29:10.862Z,34.51
2019-03-26T14:31:39.350Z,34.50
2019-03-26T14:34:08.232Z,34.31
2019-03-26T14:36:36.709Z,35.20
2019-03-26T14:39:08.244Z,34.30
2019-03-26T14:41:36.897Z,34.60
2019-03-26T14:44:05.453Z,35.00
2019-03-26T14:46:34.152Z,34.29
2019-03-26T14:49:02.701Z,34.94
2019-03-26T14:51:31.270Z,35.77
2019-03-26T14:53:59.852Z,35.40
2019-03-26T14:56:28.645Z,34.69
2019-03-26T14:58:57.235Z,34.63
2019-03-26T15:01:25.695Z,35.08
2019-03-26T15:03:54.375Z,35.44
2019-03-26T15:06:22.963Z,34.55
2019-03-26T15:08:51.544Z,34.74
2019-03-26T15:11:20.062Z,34.75
2019-03-26T15:13:49.597Z,34.77
2019-03-26T15:16:18.398Z,35.35
2019-03-26T15:18:46.982Z,34.42
2019-03-26T15:21:15.575Z,34.38
2019-03-26T15:23:44.065Z,34.74
2019-03-26T15:26:12.572Z,34.46
2019-03-26T15:28:46.222Z,33.60
2019-03-26T15:31:14.732Z,33.75
2019-03-26T15:33:43.211Z,34.39
2019-03-26T15:36:11.731Z,34.92
2019-03-26T15:38:40.322Z,34.02
2019-03-26T15:41:21.002Z,34.63
2019-03-26T15:43:39.000Z,34.91
2019-03-26T15:46:07.509Z,34.76
2019-03-26T15:48:35.990Z,35.09
2019-03-26T15:51:04.797Z,35.89
2019-03-26T15:53:33.356Z,37.32
2019-03-26T15:56:01.958Z,37.84
2019-03-26T15:58:30.426Z,37.54
2019-03-26T16:00:58.940Z,37.40
2019-03-26T16:03:27.435Z,38.05
2019-03-26T16:05:55.944Z,37.67
2019-03-26T16:08:24.441Z,37.75
2019-03-26T16:10:52.960Z,38.61
2019-03-26T16:13:21.435Z,39.02
2019-03-26T16:15:51.858Z,39.33
2019-03-26T16:18:20.189Z,39.58
2019-03-26T16:20:48.707Z,39.61
2019-03-26T16:23:17.217Z,40.33
2019-03-26T16:25:45.900Z,40.92
2019-03-26T16:28:14.388Z,40.42
2019-03-26T16:30:42.865Z,40.61
2019-03-26T16:33:11.435Z,40.98
2019-03-26T16:35:40.495Z,42.17
2019-03-26T16:38:09.017Z,41.44
2019-03-26T16:40:37.593Z,41.63
2019-03-26T16:43:06.178Z,41.55
2019-03-26T16:45:34.766Z,41.35
2019-03-26T16:48:03.266Z,40.97
2019-03-26T16:50:32.116Z,41.35
2019-03-26T16:53:00.652Z,41.79
2019-03-26T16:55:29.147Z,42.11
2019-03-26T16:57:57.644Z,41.61
2019-03-26T17:00:33.306Z,42.26
2019-03-26T17:03:02.137Z,42.45
2019-03-26T17:05:30.646Z,42.51
2019-03-26T17:07:59.278Z,42.51
2019-03-26T17:10:27.787Z,42.29
2019-03-26T17:12:57.196Z,42.69
2019-03-26T17:15:25.675Z,43.16
2019-03-26T17:17:54.235Z,42.62
2019-03-26T17:20:24.103Z,42.01
2019-03-26T17:22:52.732Z,42.33
2019-03-26T17:25:21.230Z,41.85
2019-03-26T17:27:50.007Z,42.07
2019-03-26T17:30:18.638Z,42.19
2019-03-26T17:32:47.287Z,42.19
2019-03-26T17:35:15.870Z,42.41
2019-03-26T17:37:44.443Z,42.89
2019-03-26T17:40:13.660Z,43.13
2019-03-26T17:42:42.152Z,43.45
2019-03-26T17:45:10.777Z,43.53
2019-03-26T17:47:39.257Z,43.58
2019-03-26T17:50:08.626Z,43.34
2019-03-26T17:52:37.271Z,43.28
2019-03-26T17:55:07.944Z,43.22
2019-03-26T17:57:36.443Z,43.07
2019-03-26T18:00:07.992Z,43.79
2019-03-26T18:02:36.473Z,43.87
2019-03-26T18:05:10.523Z,44.24
2019-03-26T18:07:39.020Z,44.47
2019-03-26T18:10:07.643Z,44.56
2019-03-26T18:12:36.158Z,44.96
2019-03-26T18:15:06.011Z,45.17
2019-03-26T18:17:34.531Z,45.24
2019-03-26T18:20:03.105Z,44.84
2019-03-26T18:22:31.620Z,44.86
2019-03-26T18:25:00.353Z,45.38
2019-03-26T18:27:28.912Z,45.62
2019-03-26T18:29:57.398Z,45.46
2019-03-26T18:32:25.892Z,45.40
2019-03-26T18:34:54.394Z,45.64
2019-03-26T18:37:22.906Z,45.65
2019-03-26T18:39:51.408Z,46.35
2019-03-26T18:42:20.057Z,46.02
2019-03-26T18:44:48.573Z,46.59
2019-03-26T18:47:17.422Z,47.22
2019-03-26T18:49:45.901Z,47.47
2019-03-26T18:52:14.401Z,48.01
2019-03-26T18:54:43.050Z,48.43
2019-03-26T18:57:11.530Z,48.50
2019-03-26T18:59:40.062Z,49.96
2019-03-26T19:02:08.578Z,49.54
2019-03-26T19:04:37.031Z,48.95
2019-03-26T19:07:05.540Z,48.78
2019-03-26T19:09:34.042Z,49.46
2019-03-26T19:12:02.549Z,49.77
2019-03-26T19:14:31.059Z,49.40
2019-03-26T19:16:59.565Z,48.65
2019-03-26T19:19:28.066Z,47.67
2019-03-26T19:21:56.652Z,47.55
2019-03-26T19:24:25.221Z,47.44
2019-03-26T19:26:53.727Z,47.23
2019-03-26T19:29:22.231Z,48.76
2019-03-26T19:31:50.911Z,49.07
2019-03-26T19:34:19.418Z,47.78
2019-03-26T19:36:47.931Z,48.04
2019-03-26T19:39:16.404Z,47.56
2019-03-26T19:41:45.015Z,48.31
2019-03-26T19:44:13.492Z,47.94
2019-03-26T19:46:41.991Z,48.36
2019-03-26T19:49:10.513Z,47.87
2019-03-26T19:51:39.000Z,48.39
2019-03-26T19:54:07.760Z,49.89
2019-03-26T19:56:36.302Z,48.99
2019-03-26T19:59:04.839Z,48.99
2019-03-26T20:01:33.369Z,49.25
2019-03-26T20:04:01.866Z,50.03
2019-03-26T20:06:30.349Z,50.66
2019-03-26T20:08:58.841Z,50.97
2019-03-26T20:11:27.359Z,50.57
2019-03-26T20:13:55.938Z,50.85
2019-03-26T20:16:27.194Z,50.71
2019-03-26T20:18:54.730Z,51.17
2019-03-26T20:21:23.291Z,51.63
2019-03-26T20:23:51.807Z,52.87
2019-03-26T20:26:20.575Z,51.80
2019-03-26T20:28:49.177Z,52.62
2019-03-26T20:31:17.750Z,53.97
2019-03-26T20:33:46.312Z,54.01
2019-03-26T20:36:14.808Z,53.87
2019-03-26T20:38:43.476Z,53.98
2019-03-26T20:41:12.049Z,54.49
2019-03-26T20:43:40.541Z,54.48
2019-03-26T20:46:09.036Z,54.56
2019-03-26T20:48:37.570Z,54.90
2019-03-26T20:51:06.234Z,55.23
2019-03-26T20:53:34.826Z,55.70
2019-03-26T20:56:03.472Z,56.08
2019-03-26T20:58:32.128Z,56.51
2019-03-26T21:01:00.702Z,57.04
2019-03-26T21:03:29.211Z,57.02
2019-03-26T21:05:57.721Z,57.16
2019-03-26T21:08:41.517Z,57.43
2019-03-26T21:11:10.039Z,57.24
2019-03-26T21:13:50.205Z,57.14
2019-03-26T21:16:08.738Z,57.14
2019-03-26T21:18:37.245Z,57.06
2019-03-26T21:21:05.748Z,56.95
2019-03-26T21:23:34.255Z,56.91
2019-03-26T21:26:02.818Z,57.23
2019-03-26T21:28:31.314Z,57.50
2019-03-26T21:30:59.817Z,57.95
2019-03-26T21:33:28.315Z,58.42
2019-03-26T21:35:56.819Z,58.93
2019-03-26T21:38:25.316Z,58.15
2019-03-26T21:40:54.078Z,58.77
2019-03-26T21:43:22.599Z,58.99
2019-03-26T21:45:51.125Z,58.16
2019-03-26T21:48:19.663Z,58.07
2019-03-26T21:50:48.243Z,58.02
2019-03-26T21:53:16.742Z,58.38
2019-03-26T21:55:45.260Z,58.19
2019-03-26T21:58:13.760Z,57.90
2019-03-26T22:00:44.331Z,57.91
2019-03-26T22:03:12.726Z,57.70
2019-03-26T22:05:41.217Z,57.66
2019-03-26T22:08:09.701Z,57.65
2019-03-26T22:10:38.189Z,57.90
2019-03-26T22:13:06.675Z,58.20
2019-03-26T22:15:35.184Z,58.26
2019-03-26T22:18:03.672Z,58.12
2019-03-26T22:20:32.235Z,58.52
2019-03-26T22:23:00.800Z,58.60
2019-03-26T22:25:29.474Z,58.61
2019-03-26T22:27:58.050Z,58.63
2019-03-26T22:30:26.621Z,59.01
2019-03-26T22:32:55.127Z,59.24
2019-03-26T22:35:23.603Z,59.49
2019-03-26T22:37:52.102Z,59.48
2019-03-26T22:40:20.996Z,58.91
2019-03-26T22:42:49.481Z,58.99
2019-03-26T22:45:18.023Z,59.41
2019-03-26T22:47:46.538Z,59.63
2019-03-26T22:50:15.451Z,60.08
2019-03-26T22:52:43.945Z,59.99
2019-03-26T22:55:12.602Z,60.32
2019-03-26T22:57:41.092Z,60.59
2019-03-26T23:00:12.644Z,60.50
2019-03-26T23:02:41.209Z,60.54
2019-03-26T23:05:10.721Z,61.17
2019-03-26T23:07:39.257Z,61.61
2019-03-26T23:10:08.693Z,60.69
2019-03-26T23:12:37.371Z,60.83
2019-03-26T23:15:20.590Z,60.33
2019-03-26T23:17:49.223Z,60.62
2019-03-26T23:20:17.784Z,60.96
2019-03-26T23:22:46.338Z,61.69
2019-03-26T23:25:15.576Z,62.01
2019-03-26T23:27:44.150Z,62.42
2019-03-26T23:30:13.445Z,62.54
2019-03-26T23:32:41.959Z,62.56
2019-03-26T23:35:10.795Z,62.72
2019-03-26T23:37:39.279Z,62.71
2019-03-26T23:40:08.005Z,62.18
2019-03-26T23:42:36.492Z,61.44
2019-03-26T23:45:07.525Z,60.88
2019-03-26T23:47:36.028Z,60.80
2019-03-26T23:50:06.762Z,60.72
2019-03-26T23:52:35.249Z,60.74
2019-03-26T23:55:04.696Z,60.63
2019-03-26T23:57:33.176Z,60.38
